createdAt,value
2019-03-08T00:01:11.630Z,9.17
2019-03-08T00:03:41.061Z,5.40
2019-03-08T00:06:10.439Z,8.27
2019-03-08T00:08:39.782Z,6.30
2019-03-08T00:11:09.105Z,5.40
2019-03-08T00:13:38.439Z,8.17
2019-03-08T00:16:07.855Z,7.17
2019-03-08T00:18:37.163Z,6.80
2019-03-08T00:21:06.479Z,9.93
2019-03-08T00:23:36.160Z,4.97
2019-03-08T00:26:06.602Z,4.40
2019-03-08T00:28:36.007Z,3.87
2019-03-08T00:31:05.481Z,5.23
2019-03-08T00:33:34.886Z,10.07
2019-03-08T00:36:05.357Z,5.13
2019-03-08T00:38:34.672Z,6.73
2019-03-08T00:41:04.037Z,4.20
2019-03-08T00:43:33.349Z,6.43
2019-03-08T00:46:02.754Z,5.93
2019-03-08T00:48:32.068Z,4.90
2019-03-08T00:51:01.667Z,5.47
2019-03-08T00:53:30.979Z,6.13
2019-03-08T00:56:00.295Z,6.90
2019-03-08T00:58:29.623Z,5.93
2019-03-08T01:00:58.982Z,4.50
2019-03-08T01:03:28.354Z,6.00
2019-03-08T01:05:57.899Z,4.40
2019-03-08T01:08:27.335Z,6.77
2019-03-08T01:10:56.735Z,5.80
2019-03-08T01:13:26.115Z,7.30
2019-03-08T01:15:55.443Z,7.13
2019-03-08T01:18:24.769Z,6.57
2019-03-08T01:20:54.188Z,8.33
2019-03-08T01:23:23.575Z,7.90
2019-03-08T01:25:53.059Z,5.43
2019-03-08T01:28:22.456Z,5.43
2019-03-08T01:30:51.775Z,5.60
2019-03-08T01:33:21.373Z,5.87
2019-03-08T01:35:50.787Z,6.77
2019-03-08T01:38:20.095Z,8.23
2019-03-08T01:40:49.496Z,6.50
2019-03-08T01:43:18.895Z,5.73
2019-03-08T01:45:48.295Z,5.40
2019-03-08T01:48:17.602Z,6.20
2019-03-08T01:50:47.130Z,5.93
2019-03-08T01:53:16.515Z,5.23
2019-03-08T01:55:45.841Z,4.77
2019-03-08T01:58:15.241Z,3.83
2019-03-08T02:00:44.749Z,4.70
2019-03-08T02:03:14.145Z,3.97
2019-03-08T02:05:43.456Z,3.63
2019-03-08T02:08:12.803Z,5.27
2019-03-08T02:10:42.210Z,5.10
2019-03-08T02:13:11.609Z,5.60
2019-03-08T02:15:40.939Z,8.10
2019-03-08T02:18:10.403Z,5.67
2019-03-08T02:20:39.726Z,4.30
2019-03-08T02:23:09.111Z,5.83
2019-03-08T02:25:38.419Z,5.77
2019-03-08T02:28:08.698Z,4.57
2019-03-08T02:30:38.143Z,4.63
2019-03-08T02:33:07.564Z,4.07
2019-03-08T02:35:37.030Z,4.37
2019-03-08T02:38:06.370Z,7.40
2019-03-08T02:40:37.042Z,5.00
2019-03-08T02:43:09.238Z,5.43
2019-03-08T02:45:38.548Z,3.73
2019-03-08T02:48:07.872Z,6.83
2019-03-08T02:50:37.179Z,5.73
2019-03-08T02:53:06.640Z,5.13
2019-03-08T02:55:36.224Z,4.63
2019-03-08T02:58:05.616Z,5.47
2019-03-08T03:00:37.999Z,4.67
2019-03-08T03:03:08.571Z,7.40
2019-03-08T03:05:37.891Z,7.37
2019-03-08T03:08:07.487Z,4.93
2019-03-08T03:10:36.808Z,6.37
2019-03-08T03:13:06.133Z,4.83
2019-03-08T03:15:35.441Z,4.63
2019-03-08T03:18:04.831Z,4.93
2019-03-08T03:20:34.138Z,4.67
2019-03-08T03:23:03.530Z,5.30
2019-03-08T03:25:32.838Z,4.37
2019-03-08T03:28:02.231Z,4.97
2019-03-08T03:30:31.540Z,4.87
2019-03-08T03:33:00.860Z,5.03
2019-03-08T03:35:30.603Z,4.10
2019-03-08T03:37:59.973Z,5.67
2019-03-08T03:40:29.336Z,3.87
2019-03-08T03:42:58.733Z,5.77
2019-03-08T03:45:28.124Z,3.50
2019-03-08T03:47:57.517Z,5.00
2019-03-08T03:50:26.907Z,4.73
2019-03-08T03:52:56.217Z,5.17
2019-03-08T03:55:25.617Z,5.47
2019-03-08T03:57:54.927Z,3.53
2019-03-08T04:00:25.854Z,4.87
2019-03-08T04:02:55.422Z,4.30
2019-03-08T04:05:24.762Z,5.30
2019-03-08T04:07:54.080Z,4.23
2019-03-08T04:10:23.448Z,4.67
2019-03-08T04:12:52.779Z,4.70
2019-03-08T04:15:22.480Z,5.77
2019-03-08T04:17:51.871Z,6.73
2019-03-08T04:20:21.359Z,5.20
2019-03-08T04:22:50.683Z,5.50
2019-03-08T04:25:19.995Z,5.63
2019-03-08T04:27:49.383Z,6.13
2019-03-08T04:30:20.415Z,4.23
2019-03-08T04:32:49.727Z,5.23
2019-03-08T04:35:19.130Z,10.30
2019-03-08T04:37:48.444Z,4.77
2019-03-08T04:40:17.764Z,6.07
2019-03-08T04:42:47.076Z,8.27
2019-03-08T04:45:16.951Z,9.57
2019-03-08T04:47:46.267Z,6.23
2019-03-08T04:50:16.711Z,6.33
2019-03-08T04:52:46.098Z,7.07
2019-03-08T04:55:18.261Z,3.83
2019-03-08T04:57:47.975Z,4.63
2019-03-08T05:00:18.611Z,5.20
2019-03-08T05:02:47.997Z,5.77
2019-03-08T05:05:17.395Z,2.97
2019-03-08T05:07:46.850Z,2.03
2019-03-08T05:10:17.570Z,5.33
2019-03-08T05:12:46.968Z,2.10
2019-03-08T05:15:16.458Z,3.77
2019-03-08T05:17:45.766Z,3.63
2019-03-08T05:20:15.158Z,5.17
2019-03-08T05:22:44.485Z,10.13
2019-03-08T05:25:14.740Z,8.37
2019-03-08T05:27:44.139Z,5.50
2019-03-08T05:30:17.224Z,8.53
2019-03-08T05:32:46.615Z,7.37
2019-03-08T05:35:16.100Z,5.33
2019-03-08T05:37:46.749Z,11.93
2019-03-08T05:40:17.551Z,11.70
2019-03-08T05:42:46.947Z,11.57
2019-03-08T05:45:17.249Z,8.73
2019-03-08T05:47:46.576Z,13.20
2019-03-08T05:50:15.966Z,14.07
2019-03-08T05:52:45.622Z,18.33
2019-03-08T05:55:14.934Z,8.67
2019-03-08T05:57:44.281Z,14.57
2019-03-08T06:00:20.267Z,17.30
2019-03-08T06:02:49.669Z,16.17
2019-03-08T06:05:20.127Z,20.80
2019-03-08T06:07:49.467Z,23.83
2019-03-08T06:10:29.710Z,16.77
2019-03-08T06:12:59.947Z,23.87
2019-03-08T06:15:29.672Z,16.50
2019-03-08T06:17:59.324Z,19.17
2019-03-08T06:20:28.712Z,18.93
2019-03-08T06:22:58.127Z,16.30
2019-03-08T06:25:27.676Z,15.03
2019-03-08T06:27:57.075Z,11.20
2019-03-08T06:30:26.399Z,19.77
2019-03-08T06:32:56.011Z,17.53
2019-03-08T06:35:25.319Z,31.73
2019-03-08T06:37:54.644Z,35.80
2019-03-08T06:40:23.972Z,23.47
2019-03-08T06:42:53.367Z,39.13
2019-03-08T06:45:22.683Z,32.43
2019-03-08T06:47:52.006Z,44.93
2019-03-08T06:50:21.328Z,38.63
2019-03-08T06:52:50.653Z,35.73
2019-03-08T06:55:19.986Z,35.67
2019-03-08T06:57:52.505Z,31.27
2019-03-08T07:00:32.796Z,39.07
2019-03-08T07:03:02.667Z,25.23
2019-03-08T07:05:32.319Z,30.67
2019-03-08T07:08:01.740Z,22.43
2019-03-08T07:10:31.067Z,35.07
2019-03-08T07:13:03.637Z,43.70
2019-03-08T07:15:31.823Z,41.80
2019-03-08T07:18:01.139Z,38.37
2019-03-08T07:20:35.059Z,35.00
2019-03-08T07:23:06.097Z,26.10
2019-03-08T07:25:54.611Z,27.00
2019-03-08T07:28:42.456Z,36.97
2019-03-08T07:31:22.375Z,45.43
2019-03-08T07:33:53.652Z,41.87
2019-03-08T07:36:30.855Z,40.63
2019-03-08T07:39:11.119Z,41.83
2019-03-08T07:41:45.226Z,39.63
2019-03-08T07:44:22.091Z,48.30
2019-03-08T07:47:01.834Z,48.13
2019-03-08T07:49:32.799Z,32.60
2019-03-08T07:52:03.759Z,29.97
2019-03-08T07:54:34.794Z,35.70
2019-03-08T07:57:05.746Z,28.77
2019-03-08T07:59:38.168Z,33.00
2019-03-08T08:02:09.519Z,29.80
2019-03-08T08:04:46.159Z,24.23
2019-03-08T08:07:20.060Z,25.10
2019-03-08T08:09:53.580Z,33.20
2019-03-08T08:12:25.099Z,29.03
2019-03-08T08:15:01.904Z,24.23
2019-03-08T08:17:36.695Z,30.37
2019-03-08T08:20:16.622Z,28.53
2019-03-08T08:23:01.202Z,33.00
2019-03-08T08:25:36.766Z,25.07
2019-03-08T08:28:10.679Z,25.00
2019-03-08T08:30:53.888Z,31.97
2019-03-08T08:33:41.024Z,23.87
2019-03-08T08:36:12.179Z,25.50
2019-03-08T08:38:46.604Z,29.93
2019-03-08T08:41:20.024Z,20.87
2019-03-08T08:43:51.054Z,25.23
2019-03-08T08:46:38.179Z,22.17
2019-03-08T08:49:24.361Z,21.63
2019-03-08T08:52:13.658Z,16.43
2019-03-08T08:54:44.799Z,20.60
2019-03-08T08:57:18.511Z,25.73
2019-03-08T08:59:58.433Z,21.63
2019-03-08T09:02:32.099Z,27.10
2019-03-08T09:05:09.143Z,23.53
2019-03-08T09:07:55.393Z,19.00
2019-03-08T09:10:42.351Z,21.20
2019-03-08T09:13:22.300Z,22.70
2019-03-08T09:16:03.528Z,24.43
2019-03-08T09:18:51.022Z,25.80
2019-03-08T09:21:34.299Z,28.90
2019-03-08T09:24:11.236Z,21.87
2019-03-08T09:26:54.403Z,24.50
2019-03-08T09:29:41.474Z,21.73
2019-03-08T09:32:15.182Z,24.80
2019-03-08T09:34:46.323Z,22.60
2019-03-08T09:37:33.407Z,27.57
2019-03-08T09:40:20.946Z,18.60
2019-03-08T09:42:51.925Z,17.97
2019-03-08T09:45:42.322Z,28.87
2019-03-08T09:48:13.298Z,28.97
2019-03-08T09:50:48.171Z,25.90
2019-03-08T09:53:19.253Z,16.30
2019-03-08T09:55:50.327Z,16.97
2019-03-08T09:58:39.263Z,22.37
2019-03-08T10:01:16.597Z,25.80
2019-03-08T10:03:51.872Z,27.90
2019-03-08T10:06:28.518Z,22.37
2019-03-08T10:09:05.463Z,24.83
2019-03-08T10:11:38.048Z,26.63
2019-03-08T10:14:11.562Z,20.30
2019-03-08T10:16:46.323Z,17.90
2019-03-08T10:19:17.714Z,30.77
2019-03-08T10:21:54.436Z,27.63
2019-03-08T10:24:25.414Z,18.20
2019-03-08T10:26:56.438Z,18.83
2019-03-08T10:29:27.411Z,21.97
2019-03-08T10:32:02.602Z,20.00
2019-03-08T10:34:39.245Z,20.97
2019-03-08T10:37:13.225Z,17.87
2019-03-08T10:39:56.636Z,22.40
2019-03-08T10:42:36.350Z,17.90
2019-03-08T10:45:09.457Z,19.40
2019-03-08T10:47:40.498Z,15.40
2019-03-08T10:50:18.470Z,18.97
2019-03-08T10:53:01.396Z,24.87
2019-03-08T10:55:48.903Z,17.57
2019-03-08T10:58:25.691Z,19.77
2019-03-08T11:00:59.494Z,21.70
2019-03-08T11:03:33.423Z,20.00
2019-03-08T11:06:07.144Z,20.27
2019-03-08T11:08:38.183Z,15.63
2019-03-08T11:11:26.616Z,12.67
2019-03-08T11:14:00.805Z,28.70
2019-03-08T11:16:37.711Z,21.87
2019-03-08T11:19:09.165Z,23.47
2019-03-08T11:21:46.161Z,18.23
2019-03-08T11:24:20.139Z,21.73
2019-03-08T11:27:05.246Z,20.27
2019-03-08T11:29:44.997Z,15.27
2019-03-08T11:32:23.041Z,24.60
2019-03-08T11:35:01.750Z,20.83
2019-03-08T11:37:35.887Z,22.20
2019-03-08T11:40:24.712Z,11.60
2019-03-08T11:43:01.447Z,18.93
2019-03-08T11:45:38.503Z,16.70
2019-03-08T11:48:21.820Z,17.50
2019-03-08T11:50:58.753Z,16.40
2019-03-08T11:53:44.795Z,16.73
2019-03-08T11:56:25.733Z,16.73
2019-03-08T11:59:02.759Z,27.07
2019-03-08T12:01:37.763Z,19.33
2019-03-08T12:04:20.730Z,21.27
2019-03-08T12:07:09.250Z,19.47
2019-03-08T12:09:46.100Z,24.40
2019-03-08T12:12:29.160Z,30.07
2019-03-08T12:15:16.539Z,26.90
2019-03-08T12:18:03.775Z,29.10
2019-03-08T12:20:38.616Z,30.90
2019-03-08T12:23:16.643Z,23.77
2019-03-08T12:26:04.123Z,20.17
2019-03-08T12:28:37.892Z,16.83
2019-03-08T12:31:25.648Z,19.00
2019-03-08T12:34:08.858Z,15.87
2019-03-08T12:36:46.038Z,14.20
2019-03-08T12:39:23.508Z,22.93
2019-03-08T12:41:54.587Z,17.63
2019-03-08T12:44:28.599Z,16.07
2019-03-08T12:47:17.927Z,18.27
2019-03-08T12:50:05.250Z,17.17
2019-03-08T12:52:48.075Z,9.13
2019-03-08T12:55:33.828Z,13.07
2019-03-08T13:00:53.586Z,13.03
2019-03-08T13:03:33.544Z,14.20
2019-03-08T13:06:19.691Z,11.47
2019-03-08T13:08:56.378Z,15.20
2019-03-08T13:11:32.885Z,15.40
2019-03-08T13:13:56.733Z,11.20
2019-03-08T13:16:26.053Z,19.30
2019-03-08T13:18:55.459Z,10.23
2019-03-08T13:21:24.779Z,14.97
2019-03-08T13:23:54.108Z,12.03
2019-03-08T13:26:23.427Z,13.53
2019-03-08T13:29:12.096Z,19.10
2019-03-08T13:31:41.492Z,13.57
2019-03-08T13:34:10.816Z,17.77
2019-03-08T13:36:40.135Z,19.87
2019-03-08T13:39:09.903Z,18.03
2019-03-08T13:41:39.231Z,14.70
2019-03-08T13:44:08.558Z,15.87
2019-03-08T13:46:37.884Z,19.33
2019-03-08T13:49:07.279Z,21.53
2019-03-08T13:51:36.975Z,10.90
2019-03-08T13:54:06.326Z,13.10
2019-03-08T13:56:36.619Z,11.07
2019-03-08T13:59:05.956Z,10.63
2019-03-08T14:01:35.287Z,7.47
2019-03-08T14:04:04.611Z,10.60
2019-03-08T14:06:33.926Z,13.53
2019-03-08T14:09:04.239Z,14.23
2019-03-08T14:11:34.031Z,10.50
2019-03-08T14:14:03.407Z,12.97
2019-03-08T14:16:32.769Z,14.83
2019-03-08T14:19:03.613Z,8.37
2019-03-08T14:21:32.964Z,11.53
2019-03-08T14:24:02.352Z,8.40
2019-03-08T14:26:31.679Z,14.53
2019-03-08T14:29:01.016Z,16.50
2019-03-08T14:31:31.983Z,14.17
2019-03-08T14:34:01.411Z,17.10
2019-03-08T14:36:30.864Z,10.07
2019-03-08T14:39:00.179Z,17.43
2019-03-08T14:41:34.210Z,10.77
2019-03-08T14:44:05.295Z,14.47
2019-03-08T14:46:42.083Z,18.70
2019-03-08T14:49:11.407Z,15.77
2019-03-08T14:51:40.804Z,14.83
2019-03-08T14:54:10.895Z,9.97
2019-03-08T14:56:40.627Z,14.30
2019-03-08T14:59:11.233Z,12.43
2019-03-08T15:01:41.378Z,18.63
2019-03-08T15:04:11.751Z,12.37
2019-03-08T15:06:41.083Z,13.43
2019-03-08T15:09:12.326Z,14.87
2019-03-08T15:11:41.644Z,11.77
2019-03-08T15:14:10.967Z,15.50
2019-03-08T15:16:40.279Z,14.83
2019-03-08T15:19:10.054Z,22.53
2019-03-08T15:21:48.388Z,19.83
2019-03-08T15:24:10.895Z,15.33
2019-03-08T15:26:40.277Z,19.00
2019-03-08T15:29:09.679Z,12.87
2019-03-08T15:31:39.000Z,12.07
2019-03-08T15:34:08.692Z,13.47
2019-03-08T15:36:39.026Z,11.83
2019-03-08T15:39:08.544Z,13.33
2019-03-08T15:41:38.232Z,11.30
2019-03-08T15:44:07.631Z,12.70
2019-03-08T15:46:37.324Z,17.40
2019-03-08T15:49:06.735Z,11.87
2019-03-08T15:51:36.056Z,16.20
2019-03-08T15:54:05.455Z,21.17
2019-03-08T15:56:34.786Z,16.63
2019-03-08T15:59:04.103Z,13.83
2019-03-08T16:01:33.420Z,12.50
2019-03-08T16:04:02.775Z,14.07
2019-03-08T16:06:32.092Z,8.27
2019-03-08T16:09:01.423Z,12.53
2019-03-08T16:11:32.361Z,11.07
2019-03-08T16:14:08.536Z,13.13
2019-03-08T16:16:32.688Z,8.27
2019-03-08T16:19:02.012Z,13.67
2019-03-08T16:21:32.102Z,10.60
2019-03-08T16:24:01.683Z,15.10
2019-03-08T16:26:31.015Z,14.10
2019-03-08T16:29:00.234Z,17.77
2019-03-08T16:31:36.579Z,14.10
2019-03-08T16:34:07.475Z,13.27
2019-03-08T16:36:50.135Z,13.33
2019-03-08T16:39:20.902Z,12.87
2019-03-08T16:42:06.759Z,9.70
2019-03-08T16:44:43.860Z,15.47
2019-03-08T16:47:20.467Z,15.80
2019-03-08T16:49:54.095Z,13.93
2019-03-08T16:52:25.123Z,15.97
2019-03-08T16:54:56.047Z,16.67
2019-03-08T16:57:35.822Z,16.83
2019-03-08T17:00:08.427Z,15.70
2019-03-08T17:02:55.924Z,20.73
2019-03-08T17:05:33.007Z,19.30
2019-03-08T17:08:20.347Z,14.40
2019-03-08T17:10:51.311Z,18.73
2019-03-08T17:13:24.958Z,42.03
2019-03-08T17:16:04.698Z,30.23
2019-03-08T17:18:38.352Z,15.57
2019-03-08T17:21:25.465Z,18.73
2019-03-08T17:23:59.373Z,21.10
2019-03-08T17:26:33.035Z,19.00
2019-03-08T17:29:06.987Z,16.80
2019-03-08T17:31:37.964Z,20.50
2019-03-08T17:34:14.769Z,20.87
2019-03-08T17:36:54.904Z,12.70
2019-03-08T17:39:34.551Z,19.73
2019-03-08T17:42:11.023Z,20.83
2019-03-08T17:44:44.946Z,17.67
2019-03-08T17:47:15.943Z,22.10
2019-03-08T17:50:03.090Z,13.90
2019-03-08T17:52:46.255Z,15.87
2019-03-08T17:55:35.491Z,16.10
2019-03-08T17:58:06.675Z,14.93
2019-03-08T18:00:53.729Z,15.57
2019-03-08T18:03:27.367Z,13.43
2019-03-08T18:06:01.649Z,12.67
2019-03-08T18:08:38.461Z,17.60
2019-03-08T18:11:27.064Z,20.03
2019-03-08T18:14:07.107Z,15.60
2019-03-08T18:16:57.340Z,13.47
2019-03-08T18:19:34.295Z,18.27
2019-03-08T18:22:09.173Z,14.20
2019-03-08T18:24:56.464Z,15.10
2019-03-08T18:27:34.485Z,13.07
2019-03-08T18:30:07.276Z,17.30
2019-03-08T18:32:38.835Z,13.47
2019-03-08T18:35:24.980Z,13.07
2019-03-08T18:37:55.967Z,18.30
2019-03-08T18:40:27.986Z,8.83
2019-03-08T18:43:01.879Z,11.23
2019-03-08T18:45:38.504Z,13.53
2019-03-08T18:48:14.899Z,15.70
2019-03-08T18:51:01.095Z,19.77
2019-03-08T18:53:41.268Z,9.57
2019-03-08T18:56:18.211Z,13.50
2019-03-08T18:58:54.636Z,12.63
2019-03-08T19:01:28.640Z,19.40
2019-03-08T19:03:59.612Z,16.53
2019-03-08T19:06:33.512Z,12.70
2019-03-08T19:09:07.233Z,17.47
2019-03-08T19:11:38.715Z,16.43
2019-03-08T19:14:18.474Z,16.43
2019-03-08T19:17:07.454Z,19.67
2019-03-08T19:19:47.170Z,18.43
2019-03-08T19:22:26.115Z,19.43
2019-03-08T19:24:50.851Z,15.37
2019-03-08T19:27:21.802Z,16.90
2019-03-08T19:30:10.767Z,20.00
2019-03-08T19:32:53.713Z,17.73
2019-03-08T19:35:53.366Z,15.60
2019-03-08T19:38:24.319Z,18.37
2019-03-08T19:41:03.185Z,20.90
2019-03-08T19:43:45.683Z,20.83
2019-03-08T19:46:25.847Z,19.80
2019-03-08T19:49:13.705Z,16.60
2019-03-08T19:51:53.475Z,16.37
2019-03-08T19:54:33.451Z,18.03
2019-03-08T19:57:04.407Z,18.27
2019-03-08T19:59:38.059Z,14.20
2019-03-08T20:02:11.964Z,14.57
2019-03-08T20:04:45.595Z,22.77
2019-03-08T20:07:19.519Z,11.40
2019-03-08T20:09:50.479Z,13.13
2019-03-08T20:12:37.454Z,15.10
2019-03-08T20:15:20.716Z,16.40
2019-03-08T20:17:54.379Z,20.33
2019-03-08T20:20:37.303Z,15.53
2019-03-08T20:23:17.334Z,18.33
2019-03-08T20:26:04.815Z,13.53
2019-03-08T20:28:52.672Z,19.73
2019-03-08T20:31:41.664Z,16.43
2019-03-08T20:34:29.353Z,14.70
2019-03-08T20:37:00.315Z,19.17
2019-03-08T20:39:31.271Z,12.53
2019-03-08T20:42:02.248Z,17.27
2019-03-08T20:44:45.102Z,16.80
2019-03-08T20:47:17.135Z,15.60
2019-03-08T20:49:46.455Z,16.53
2019-03-08T20:52:15.779Z,10.93
2019-03-08T20:54:45.099Z,18.30
2019-03-08T20:57:14.441Z,14.57
2019-03-08T20:59:43.755Z,15.30
2019-03-08T21:02:13.078Z,14.13
2019-03-08T21:04:42.419Z,13.87
2019-03-08T21:07:11.753Z,12.70
2019-03-08T21:09:41.055Z,12.73
2019-03-08T21:12:10.442Z,13.73
2019-03-08T21:14:39.763Z,12.50
2019-03-08T21:17:09.103Z,14.90
2019-03-08T21:19:38.487Z,13.63
2019-03-08T21:22:07.819Z,11.13
2019-03-08T21:24:37.130Z,13.73
2019-03-08T21:27:06.551Z,13.07
2019-03-08T21:29:35.870Z,23.07
2019-03-08T21:32:07.391Z,16.20
2019-03-08T21:34:36.505Z,12.40
2019-03-08T21:37:06.895Z,11.63
2019-03-08T21:39:36.327Z,13.07
2019-03-08T21:42:05.657Z,21.20
2019-03-08T21:44:35.263Z,14.97
2019-03-08T21:47:04.579Z,14.73
2019-03-08T21:49:33.903Z,9.97
2019-03-08T21:52:03.241Z,12.80
2019-03-08T21:54:32.630Z,14.50
2019-03-08T21:57:02.322Z,13.43
2019-03-08T21:59:31.653Z,15.20
2019-03-08T22:02:00.968Z,18.33
2019-03-08T22:04:31.939Z,22.87
2019-03-08T22:07:01.320Z,20.47
2019-03-08T22:09:32.668Z,9.40
2019-03-08T22:12:02.039Z,15.50
2019-03-08T22:14:32.343Z,12.83
2019-03-08T22:17:01.723Z,14.23
2019-03-08T22:19:31.049Z,17.33
2019-03-08T22:22:00.744Z,16.70
2019-03-08T22:24:30.109Z,14.07
2019-03-08T22:26:59.555Z,16.67
2019-03-08T22:29:28.882Z,13.73
2019-03-08T22:31:58.194Z,14.63
2019-03-08T22:34:27.798Z,18.43
2019-03-08T22:36:57.111Z,11.70
2019-03-08T22:39:26.440Z,14.10
2019-03-08T22:41:55.750Z,13.67
2019-03-08T22:44:25.156Z,12.73
2019-03-08T22:46:54.583Z,12.77
2019-03-08T22:49:23.937Z,16.50
2019-03-08T22:51:53.246Z,13.43
2019-03-08T22:54:22.571Z,11.93
2019-03-08T22:56:51.909Z,12.47
2019-03-08T22:59:21.231Z,16.73
2019-03-08T23:01:52.743Z,14.53
2019-03-08T23:04:22.139Z,11.67
2019-03-08T23:06:51.518Z,11.60
2019-03-08T23:09:21.356Z,17.77
2019-03-08T23:11:50.876Z,15.03
2019-03-08T23:14:20.231Z,14.80
2019-03-08T23:16:49.625Z,15.73
2019-03-08T23:19:18.947Z,10.57
2019-03-08T23:21:48.267Z,16.17
2019-03-08T23:24:17.590Z,13.63
2019-03-08T23:26:48.715Z,14.30
2019-03-08T23:29:25.511Z,14.73
2019-03-08T23:31:56.471Z,12.33
2019-03-08T23:34:25.810Z,8.97
2019-03-08T23:36:55.189Z,19.43
2019-03-08T23:39:24.515Z,15.13
2019-03-08T23:41:53.848Z,12.83
2019-03-08T23:44:23.213Z,16.00
2019-03-08T23:46:52.607Z,14.37
2019-03-08T23:49:21.930Z,12.87
2019-03-08T23:51:51.243Z,12.87
2019-03-08T23:54:20.572Z,13.83
2019-03-08T23:56:50.081Z,16.00
2019-03-08T23:59:19.499Z,14.60
